Van Kinsbergen — PAKB — position and weather

sailwx.info

Track history (hours):
 
Tides and Currents Weather Stations Pressure Air Temp Water Temp Dewpoint Dewpoint Depression Visibility Wind Speed Wind Dir Waves Ship Positions

Van Kinsbergen

Last reported at 2016-Feb-07 16:33 UTC. Time now 2016-Feb-07 17:17 UTC.
Position N 54°22' E 010°09'.

Length 40 m; draft 3.1 m.

MMSI: 244736000.

Date/timePositionNaut miles runAvg speedWind from/ knotsBaromVisibWave heightAir tempDewpointWater temp
2016-Feb-07 16:33N 54°22' E 010°09'0 0.0
2016-Feb-07 15:33N 54°22' E 010°09'0 0.0
2016-Feb-07 14:33N 54°22' E 010°09'0 0.0
2016-Feb-07 13:33N 54°22' E 010°09'0 0.0
2016-Feb-07 12:33N 54°22' E 010°09'0 0.0
2016-Feb-07 11:33N 54°22' E 010°09'0 0.0
2016-Feb-07 10:33N 54°22' E 010°09'0 0.0
2016-Feb-07 09:33N 54°22' E 010°09'0 0.0
2016-Feb-07 08:33N 54°22' E 010°09'0 0.0
2016-Feb-07 07:33N 54°22' E 010°09'4 4.3
2016-Feb-07 06:34N 54°25' E 010°13'23 7.6
2016-Feb-07 03:30N 54°38' E 010°46'8 8.4
2016-Feb-07 02:33N 54°45' E 010°52'9 8.7
2016-Feb-07 01:33N 54°54' E 010°53'7 6.7
2016-Feb-07 00:34N 54°47' E 010°53'9 8.8
2016-Feb-06 23:33N 54°39' E 010°46'9 9.0
2016-Feb-06 22:33N 54°41' E 010°31'88 2.4
2016-Feb-05 09:33N 56°09' E 010°18'3 0.1
2016-Feb-04 13:11N 56°09' E 010°13'0 0.0
2016-Feb-04 12:17N 56°09' E 010°13'1 0.4
2016-Feb-04 08:33N 56°09' E 010°16'7 7.0
2016-Feb-04 07:33N 56°03' E 010°22'61 3.2
2016-Feb-03 12:06N 55°02' E 010°17'611.1
2016-Feb-03 11:32N 55°02' E 010°28'5 5.6
2016-Feb-03 10:33N 55°03' E 010°37'7 7.1
2016-Feb-03 09:33N 55°06' E 010°48'1111.1
2016-Feb-03 08:32N 55°17' E 010°55'9 9.6
2016-Feb-03 07:33N 55°16' E 011°11'8 7.7
2016-Feb-03 06:34N 55°09' E 011°16'2 2.4
2016-Feb-03 05:32N 55°09' E 011°11'0 0.0
2016-Feb-03 04:32N 55°09' E 011°11'0 0.0
2016-Feb-03 03:32N 55°09' E 011°11'0 0.0
2016-Feb-03 02:32N 55°09' E 011°11'0 0.0
2016-Feb-03 01:32N 55°09' E 011°11'0 0.0
2016-Feb-03 00:32N 55°09' E 011°11'0 0.0
2016-Feb-02 23:32N 55°09' E 011°11'0 0.0
2016-Feb-02 22:32N 55°09' E 011°11'0 0.0
2016-Feb-02 21:32N 55°09' E 011°11'0 0.0
2016-Feb-02 20:29N 55°09' E 011°11'0 0.0
2016-Feb-02 19:23N 55°09' E 011°11'0 0.0
2016-Feb-02 18:26N 55°09' E 011°11'0 0.0
2016-Feb-02 17:29N 55°09' E 011°11'0 0.0
2016-Feb-02 16:32N 55°09' E 011°11'0 0.0
2016-Feb-02 15:32N 55°09' E 011°11'3 3.5
2016-Feb-02 14:32N 55°12' E 011°14'1 0.8
2016-Feb-02 13:33N 55°13' E 011°13'4 3.6
2016-Feb-02 12:33N 55°17' E 011°11'3 2.4
2016-Feb-02 11:32N 55°14' E 011°12'2 1.7
2016-Feb-02 10:33N 55°13' E 011°13'5 5.0
2016-Feb-02 09:31N 55°17' E 011°09'6 6.2
2016-Feb-02 08:33N 55°12' E 011°14'7 7.2
2016-Feb-02 07:33N 55°18' E 011°06'4 0.3
2016-Feb-01 18:27N 55°21' E 011°03'7 7.5
2016-Feb-01 17:33N 55°15' E 011°06'8 7.9
2016-Feb-01 16:33N 55°07' E 011°05'9 8.6
2016-Feb-01 15:33N 54°59' E 011°02'1010.1
2016-Feb-01 14:34N 54°50' E 010°53'1110.7
2016-Feb-01 13:34N 54°39' E 010°56'8 8.4
2016-Feb-01 12:33N 54°34' E 010°44'2110.5
2016-Feb-01 10:32N 54°24' E 010°12'3 3.2
2016-Feb-01 09:29N 54°22' E 010°09'0 0.0
2016-Feb-01 08:32N 54°22' E 010°09'0 0.0
2016-Feb-01 07:32N 54°22' E 010°09'0 0.0
2016-Feb-01 06:32N 54°22' E 010°09'0 0.0
2016-Feb-01 05:32N 54°22' E 010°09'0 0.0
2016-Feb-01 04:32N 54°22' E 010°09'0 0.0
2016-Feb-01 03:32N 54°22' E 010°09'0 0.0
2016-Feb-01 02:32N 54°22' E 010°09'0 0.0
2016-Feb-01 01:32N 54°22' E 010°09'0 0.0
2016-Feb-01 00:32N 54°22' E 010°09'0 0.0
2016-Jan-31 23:32N 54°22' E 010°09'0 0.0
2016-Jan-31 22:32N 54°22' E 010°09'0 0.0
2016-Jan-31 21:32N 54°22' E 010°09'0 0.0
2016-Jan-31 20:32N 54°22' E 010°09'0 0.0
2016-Jan-31 19:32N 54°22' E 010°09'0 0.0
2016-Jan-31 18:32N 54°22' E 010°09'0 0.0
2016-Jan-31 17:32N 54°22' E 010°09'0 0.0
2016-Jan-31 12:32N 54°22' E 010°09'0 0.0
2016-Jan-31 11:32N 54°22' E 010°09'0 0.0
2016-Jan-31 10:32N 54°22' E 010°09'0 0.0
2016-Jan-31 09:32N 54°22' E 010°09'0 0.0
2016-Jan-31 08:32N 54°22' E 010°09'0 0.0
2016-Jan-31 07:32N 54°22' E 010°09'0 0.0
2016-Jan-31 06:32N 54°22' E 010°09'0 0.0
2016-Jan-31 05:32N 54°22' E 010°09'0 0.0
2016-Jan-31 04:32N 54°22' E 010°09'0 0.0
2016-Jan-31 03:32N 54°22' E 010°09'0 0.0
2016-Jan-31 02:29N 54°22' E 010°09'0 0.0
2016-Jan-31 01:32N 54°22' E 010°09'0 0.0
2016-Jan-31 00:32N 54°22' E 010°09'0 0.0
2016-Jan-30 23:32N 54°22' E 010°09'0 0.0
2016-Jan-30 22:32N 54°22' E 010°09'0 0.0
2016-Jan-30 21:32N 54°22' E 010°09'0 0.0
2016-Jan-30 20:32N 54°22' E 010°09'0 0.0
2016-Jan-30 19:33N 54°22' E 010°09'8 8.0
2016-Jan-30 18:33N 54°29' E 010°16'101 3.0
2016-Jan-29 09:22N 56°10' E 010°15'  
Track history (hours):
 
Tides and Currents Weather Stations Pressure Air Temp Water Temp Dewpoint Dewpoint Depression Visibility Wind Speed Wind Dir Waves Ship Positions

Van Kinsbergen

Last reported at 2016-Feb-07 16:33 UTC. Time now 2016-Feb-07 17:17 UTC.
Position N 54°22' E 010°09'.

Length 40 m; draft 3.1 m.

MMSI: 244736000.

Date/timePositionNaut miles runAvg speedWind from/ knotsBaromVisibWave heightAir tempDewpointWater temp
2016-Feb-07 16:33N 54°22' E 010°09'0 0.0
2016-Feb-07 15:33N 54°22' E 010°09'0 0.0
2016-Feb-07 14:33N 54°22' E 010°09'0 0.0
2016-Feb-07 13:33N 54°22' E 010°09'0 0.0
2016-Feb-07 12:33N 54°22' E 010°09'0 0.0
2016-Feb-07 11:33N 54°22' E 010°09'0 0.0
2016-Feb-07 10:33N 54°22' E 010°09'0 0.0
2016-Feb-07 09:33N 54°22' E 010°09'0 0.0
2016-Feb-07 08:33N 54°22' E 010°09'0 0.0
2016-Feb-07 07:33N 54°22' E 010°09'4 4.3
2016-Feb-07 06:34N 54°25' E 010°13'23 7.6
2016-Feb-07 03:30N 54°38' E 010°46'8 8.4
2016-Feb-07 02:33N 54°45' E 010°52'9 8.7
2016-Feb-07 01:33N 54°54' E 010°53'7 6.7
2016-Feb-07 00:34N 54°47' E 010°53'9 8.8
2016-Feb-06 23:33N 54°39' E 010°46'9 9.0
2016-Feb-06 22:33N 54°41' E 010°31'88 2.4
2016-Feb-05 09:33N 56°09' E 010°18'3 0.1
2016-Feb-04 13:11N 56°09' E 010°13'0 0.0
2016-Feb-04 12:17N 56°09' E 010°13'1 0.4
2016-Feb-04 08:33N 56°09' E 010°16'7 7.0
2016-Feb-04 07:33N 56°03' E 010°22'61 3.2
2016-Feb-03 12:06N 55°02' E 010°17'611.1
2016-Feb-03 11:32N 55°02' E 010°28'5 5.6
2016-Feb-03 10:33N 55°03' E 010°37'7 7.1
2016-Feb-03 09:33N 55°06' E 010°48'1111.1
2016-Feb-03 08:32N 55°17' E 010°55'9 9.6
2016-Feb-03 07:33N 55°16' E 011°11'8 7.7
2016-Feb-03 06:34N 55°09' E 011°16'2 2.4
2016-Feb-03 05:32N 55°09' E 011°11'0 0.0
2016-Feb-03 04:32N 55°09' E 011°11'0 0.0
2016-Feb-03 03:32N 55°09' E 011°11'0 0.0
2016-Feb-03 02:32N 55°09' E 011°11'0 0.0
2016-Feb-03 01:32N 55°09' E 011°11'0 0.0
2016-Feb-03 00:32N 55°09' E 011°11'0 0.0
2016-Feb-02 23:32N 55°09' E 011°11'0 0.0
2016-Feb-02 22:32N 55°09' E 011°11'0 0.0
2016-Feb-02 21:32N 55°09' E 011°11'0 0.0
2016-Feb-02 20:29N 55°09' E 011°11'0 0.0
2016-Feb-02 19:23N 55°09' E 011°11'0 0.0
2016-Feb-02 18:26N 55°09' E 011°11'0 0.0
2016-Feb-02 17:29N 55°09' E 011°11'0 0.0
2016-Feb-02 16:32N 55°09' E 011°11'0 0.0
2016-Feb-02 15:32N 55°09' E 011°11'3 3.5
2016-Feb-02 14:32N 55°12' E 011°14'1 0.8
2016-Feb-02 13:33N 55°13' E 011°13'4 3.6
2016-Feb-02 12:33N 55°17' E 011°11'3 2.4
2016-Feb-02 11:32N 55°14' E 011°12'2 1.7
2016-Feb-02 10:33N 55°13' E 011°13'5 5.0
2016-Feb-02 09:31N 55°17' E 011°09'6 6.2
2016-Feb-02 08:33N 55°12' E 011°14'7 7.2
2016-Feb-02 07:33N 55°18' E 011°06'4 0.3
2016-Feb-01 18:27N 55°21' E 011°03'7 7.5
2016-Feb-01 17:33N 55°15' E 011°06'8 7.9
2016-Feb-01 16:33N 55°07' E 011°05'9 8.6
2016-Feb-01 15:33N 54°59' E 011°02'1010.1
2016-Feb-01 14:34N 54°50' E 010°53'1110.7
2016-Feb-01 13:34N 54°39' E 010°56'8 8.4
2016-Feb-01 12:33N 54°34' E 010°44'2110.5
2016-Feb-01 10:32N 54°24' E 010°12'3 3.2
2016-Feb-01 09:29N 54°22' E 010°09'0 0.0
2016-Feb-01 08:32N 54°22' E 010°09'0 0.0
2016-Feb-01 07:32N 54°22' E 010°09'0 0.0
2016-Feb-01 06:32N 54°22' E 010°09'0 0.0
2016-Feb-01 05:32N 54°22' E 010°09'0 0.0
2016-Feb-01 04:32N 54°22' E 010°09'0 0.0
2016-Feb-01 03:32N 54°22' E 010°09'0 0.0
2016-Feb-01 02:32N 54°22' E 010°09'0 0.0
2016-Feb-01 01:32N 54°22' E 010°09'0 0.0
2016-Feb-01 00:32N 54°22' E 010°09'0 0.0
2016-Jan-31 23:32N 54°22' E 010°09'0 0.0
2016-Jan-31 22:32N 54°22' E 010°09'0 0.0
2016-Jan-31 21:32N 54°22' E 010°09'0 0.0
2016-Jan-31 20:32N 54°22' E 010°09'0 0.0
2016-Jan-31 19:32N 54°22' E 010°09'0 0.0
2016-Jan-31 18:32N 54°22' E 010°09'0 0.0
2016-Jan-31 17:32N 54°22' E 010°09'0 0.0
2016-Jan-31 12:32N 54°22' E 010°09'0 0.0
2016-Jan-31 11:32N 54°22' E 010°09'0 0.0
2016-Jan-31 10:32N 54°22' E 010°09'0 0.0
2016-Jan-31 09:32N 54°22' E 010°09'0 0.0
2016-Jan-31 08:32N 54°22' E 010°09'0 0.0
2016-Jan-31 07:32N 54°22' E 010°09'0 0.0
2016-Jan-31 06:32N 54°22' E 010°09'0 0.0
2016-Jan-31 05:32N 54°22' E 010°09'0 0.0
2016-Jan-31 04:32N 54°22' E 010°09'0 0.0
2016-Jan-31 03:32N 54°22' E 010°09'0 0.0
2016-Jan-31 02:29N 54°22' E 010°09'0 0.0
2016-Jan-31 01:32N 54°22' E 010°09'0 0.0
2016-Jan-31 00:32N 54°22' E 010°09'0 0.0
2016-Jan-30 23:32N 54°22' E 010°09'0 0.0
2016-Jan-30 22:32N 54°22' E 010°09'0 0.0
2016-Jan-30 21:32N 54°22' E 010°09'0 0.0
2016-Jan-30 20:32N 54°22' E 010°09'0 0.0
2016-Jan-30 19:33N 54°22' E 010°09'8 8.0
2016-Jan-30 18:33N 54°29' E 010°16'101 3.0
2016-Jan-29 09:22N 56°10' E 010°15'  

Dump ship's entire track history